YBCG/OOL METAR and TAF weather

Enter ICAO airport designator
Station Type Date Time Source
YBCG METAR 2019/12/06 14:00 UTC NOAA

YBCG 061400Z AUTO 31006KT 9999 // NCD 22/20 Q1007


Station Type Date Time Source
YBCG Decoded METAR 2019/12/06 14:00 UTC NOAA

Coolangatta Airport Aws, Australia (YBCG) 28-10S 153-30E 6M
Dec 06, 2019 - 09:00 AM EST / 2019.12.06 1400 UTC
Wind: from the NW (310 degrees) at 7 MPH (6 KT):0
Visibility: greater than 7 mile(s):0
Temperature: 71 F (22 C)
Dew Point: 68 F (20 C)
Relative Humidity: 88%
Pressure (altimeter): 29.74 in. Hg (1007 hPa)
ob: YBCG 061400Z AUTO 31006KT 9999 // NCD 22/20 Q1007
cycle: 14

Station Type Date Time Source
YBCG TAF 2019/12/06 12:33 UTC NOAA

TAF YBCG 061106Z 0612/0712 34007KT 8000 FU FEW010
FM061700 25006KT 8000 FU FEW010
FM070000 13014KT 8000 FU FEW025
FM070800 16010KT 9000 FU FEW015 SCT025

Example: see airport list